Time;durP1;ratioP1;P1;durP2;ratioP2;P2;SDS_P1;SDS_P2;PMS_P1;PMS_P2;Temp;Humidity;BMP_temperature;BMP_pressure;BME280_temperature;BME280_humidity;BME280_pressure;Samples;Min_cycle;Max_cycle;Signal;HPM_P1;HPM_P2
2021/07/13 00:00:17;;;;;;;53.20;6.90;;;;;;;21.02;73.58;97156.97;4968239;28;20018;-70
2021/07/13 00:02:42;;;;;;;48.40;6.32;;;;;;;21.06;74.41;97164.44;4970373;28;20117;-70
2021/07/13 00:05:12;;;;;;;44.55;6.35;;;;;;;20.67;75.09;97158.56;4970377;28;20109;-69
2021/07/13 00:07:37;;;;;;;68.80;7.78;;;;;;;20.47;75.81;97174.47;4969948;28;20081;-71
2021/07/13 00:10:05;;;;;;;53.90;6.97;;;;;;;20.51;75.47;97175.88;4968613;28;20069;-70
2021/07/13 00:12:31;;;;;;;52.10;6.80;;;;;;;20.68;74.56;97184.09;4983719;28;20030;-70
2021/07/13 00:14:56;;;;;;;55.10;6.60;;;;;;;20.35;75.76;97187.09;4968713;28;20076;-69
2021/07/13 00:17:22;;;;;;;49.13;6.40;;;;;;;20.47;75.58;97179.78;4968575;28;20133;-71
2021/07/13 00:19:47;;;;;;;55.00;7.05;;;;;;;20.08;77.27;97179.91;4968543;28;20023;-69
2021/07/13 00:22:12;;;;;;;52.65;6.88;;;;;;;20.66;74.70;97183.38;4968026;28;20133;-70
2021/07/13 00:24:38;;;;;;;52.88;7.00;;;;;;;20.96;74.32;97183.09;4969478;28;20133;-70
2021/07/13 00:27:03;;;;;;;56.58;7.07;;;;;;;21.09;74.36;97161.50;4968800;28;20070;-70
2021/07/13 00:29:29;;;;;;;57.33;6.97;;;;;;;21.62;71.07;97159.09;4969944;28;20045;-69
2021/07/13 00:31:54;;;;;;;53.35;6.60;;;;;;;21.83;71.35;97156.09;4967802;28;20038;-70
2021/07/13 00:34:19;;;;;;;60.45;7.25;;;;;;;21.24;72.36;97161.84;4970692;28;20073;-69
2021/07/13 00:36:45;;;;;;;50.20;6.38;;;;;;;20.75;75.03;97150.69;4969452;28;20697;-69
2021/07/13 00:39:10;;;;;;;53.85;6.70;;;;;;;21.14;74.33;97146.00;4967499;28;20038;-71
2021/07/13 00:41:36;;;;;;;57.65;6.82;;;;;;;21.75;72.07;97133.78;4983796;28;20065;-71
2021/07/13 00:44:02;;;;;;;53.22;6.45;;;;;;;21.59;71.79;97133.66;4966608;28;20042;-69
2021/07/13 00:46:28;;;;;;;50.60;6.30;;;;;;;21.51;72.29;97130.97;4968182;28;20033;-70
2021/07/13 00:48:53;;;;;;;54.10;6.57;;;;;;;21.34;72.55;97125.47;4968673;28;20030;-70
2021/07/13 00:51:19;;;;;;;56.47;6.65;;;;;;;21.64;71.64;97131.38;4967308;28;20038;-70
2021/07/13 00:53:47;;;;;;;58.75;7.15;;;;;;;21.31;72.27;97130.25;4967884;28;20673;-70
2021/07/13 00:56:12;;;;;;;50.92;6.63;;;;;;;21.26;72.21;97120.06;4967878;28;20483;-70
2021/07/13 00:58:38;;;;;;;52.50;6.72;;;;;;;21.51;71.37;97136.25;4965552;28;20022;-70
2021/07/13 01:01:05;;;;;;;55.85;6.93;;;;;;;21.40;71.21;97139.13;4967882;28;20039;-69
2021/07/13 01:03:31;;;;;;;60.20;7.00;;;;;;;21.26;71.97;97146.59;4968670;28;20486;-70
2021/07/13 01:05:56;;;;;;;50.05;6.72;;;;;;;21.15;71.85;97144.16;4968806;28;20493;-69
2021/07/13 01:08:33;;;;;;;52.95;6.68;;;;;;;20.66;72.66;97148.91;4967162;28;20031;-70
2021/07/13 01:11:22;;;;;;;59.80;7.30;;;;;;;20.64;73.76;97153.53;4969954;28;20034;-70
2021/07/13 01:13:57;;;;;;;53.28;6.80;;;;;;;21.46;71.55;97143.84;4968201;28;20665;-70
2021/07/13 01:16:48;;;;;;;53.28;6.55;;;;;;;21.72;70.80;97131.44;4971364;28;20049;-70
2021/07/13 01:19:22;;;;;;;52.93;6.43;;;;;;;21.32;71.12;97143.38;4948629;28;20042;-69
2021/07/13 01:21:58;;;;;;;53.85;6.82;;;;;;;20.99;71.88;97148.34;4962103;28;20133;-71
2021/07/13 01:24:58;;;;;;;49.35;6.75;;;;;;;20.95;72.43;97141.66;4967142;28;20041;-69
2021/07/13 01:27:43;;;;;;;54.28;6.97;;;;;;;21.04;73.22;97139.09;4961972;28;20046;-70
2021/07/13 01:30:19;;;;;;;49.72;6.28;;;;;;;20.98;73.13;97138.69;4966670;28;20042;-71
2021/07/13 01:32:48;;;;;;;45.65;6.25;;;;;;;20.98;73.70;97124.63;4950622;28;20030;-70
2021/07/13 01:35:21;;;;;;;50.53;6.68;;;;;;;20.73;74.44;97128.81;4948305;28;20053;-71
2021/07/13 01:37:52;;;;;;;61.47;7.35;;;;;;;20.21;75.90;97130.13;4966021;28;20054;-70
2021/07/13 01:40:18;;;;;;;47.72;6.47;;;;;;;20.12;75.39;97133.63;4967194;28;20505;-71
2021/07/13 01:42:44;;;;;;;50.00;6.60;;;;;;;20.29;74.28;97128.56;4967920;28;20049;-69
2021/07/13 01:45:11;;;;;;;51.67;6.40;;;;;;;20.29;74.49;97133.84;4968928;28;20606;-72
2021/07/13 01:47:37;;;;;;;57.30;6.85;;;;;;;21.02;73.08;97135.75;4972888;28;20680;-70
2021/07/13 01:50:07;;;;;;;55.67;6.90;;;;;;;21.33;72.14;97123.78;4971217;28;20050;-72
2021/07/13 01:52:34;;;;;;;47.58;6.30;;;;;;;21.49;71.26;97125.81;4972157;28;20023;-70
2021/07/13 01:55:01;;;;;;;53.03;6.63;;;;;;;21.52;71.05;97111.38;4973405;28;20027;-70
2021/07/13 01:57:28;;;;;;;57.90;6.72;;;;;;;21.66;71.38;97097.56;4973220;28;20040;-70
2021/07/13 01:59:55;;;;;;;51.15;6.60;;;;;;;22.08;69.25;97075.59;4971119;28;20169;-70
2021/07/13 02:02:22;;;;;;;57.70;6.88;;;;;;;22.29;68.01;97050.50;4984681;28;20034;-69
2021/07/13 02:04:50;;;;;;;54.10;6.45;;;;;;;21.63;69.53;97050.09;4972026;28;20030;-70
2021/07/13 02:07:16;;;;;;;52.10;6.38;;;;;;;21.84;70.04;97046.28;4969277;28;20031;-70
2021/07/13 02:09:43;;;;;;;47.95;6.25;;;;;;;21.63;70.49;97036.00;4970378;28;20038;-70
2021/07/13 02:12:09;;;;;;;58.10;7.13;;;;;;;20.86;73.35;97028.59;4969577;28;20366;-70
2021/07/13 02:14:35;;;;;;;57.42;6.88;;;;;;;21.07;71.86;97028.28;4971744;28;20050;-69
2021/07/13 02:17:02;;;;;;;54.38;7.07;;;;;;;21.46;70.47;97035.06;4970050;28;20031;-69
2021/07/13 02:19:28;;;;;;;59.90;7.07;;;;;;;20.94;72.19;97033.97;4969247;28;20038;-70
2021/07/13 02:21:55;;;;;;;48.13;6.50;;;;;;;20.94;72.22;97028.66;4972103;28;20290;-70
2021/07/13 02:24:21;;;;;;;43.80;6.20;;;;;;;20.51;74.29;97024.91;4970307;28;20033;-71
2021/07/13 02:26:57;;;;;;;47.47;6.25;;;;;;;20.60;73.57;97031.97;4970561;28;20054;-71
2021/07/13 02:29:32;;;;;;;53.42;7.00;;;;;;;20.40;73.73;97033.03;4970761;28;20480;-71
2021/07/13 02:32:02;;;;;;;50.10;6.70;;;;;;;20.13;74.03;97055.06;4972276;28;20089;-71
2021/07/13 02:34:29;;;;;;;56.67;7.50;;;;;;;19.13;79.01;97072.22;4971201;28;20035;-69
2021/07/13 02:36:59;;;;;;;55.30;7.10;;;;;;;19.74;77.35;97106.31;4969275;28;20493;-69
2021/07/13 02:39:25;;;;;;;45.40;6.57;;;;;;;19.71;76.00;97111.00;4971319;28;20576;-69
2021/07/13 02:41:52;;;;;;;45.05;6.35;;;;;;;19.94;76.28;97114.19;4970923;28;20049;-70
2021/07/13 02:44:19;;;;;;;50.90;6.78;;;;;;;19.68;76.32;97108.63;4970556;28;20117;-72
2021/07/13 02:46:45;;;;;;;49.20;6.55;;;;;;;20.07;75.61;97112.06;4970088;28;20058;-70
2021/07/13 02:49:19;;;;;;;55.90;6.53;;;;;;;20.88;73.37;97103.50;4972489;28;20837;-71
2021/07/13 02:51:46;;;;;;;61.22;7.13;;;;;;;21.08;72.22;97101.53;4968666;28;20034;-69
2021/07/13 02:54:13;;;;;;;54.65;6.80;;;;;;;20.74;72.74;97109.28;4970740;28;20534;-70
2021/07/13 02:56:40;;;;;;;60.80;7.13;;;;;;;20.37;73.80;97110.16;4985168;28;20046;-69
2021/07/13 02:59:07;;;;;;;51.78;7.38;;;;;;;20.30;73.74;97122.28;4974297;28;20034;-70
2021/07/13 03:01:33;;;;;;;68.00;7.65;;;;;;;20.14;73.92;97131.66;4969337;28;20038;-70
2021/07/13 03:03:59;;;;;;;58.00;7.18;;;;;;;20.90;72.56;97128.03;4969343;28;20610;-70
2021/07/13 03:06:25;;;;;;;58.15;6.95;;;;;;;20.69;72.90;97125.63;4970241;28;20432;-70
2021/07/13 03:08:51;;;;;;;49.97;6.70;;;;;;;20.56;73.26;97136.53;4970518;28;20097;-70
2021/07/13 03:11:17;;;;;;;55.95;6.93;;;;;;;21.08;72.43;97125.41;4969016;28;20072;-70
2021/07/13 03:13:43;;;;;;;54.47;6.35;;;;;;;21.27;71.76;97124.41;4968978;28;20617;-70
2021/07/13 03:16:12;;;;;;;54.53;6.45;;;;;;;21.28;71.03;97120.75;4970804;28;20081;-70
2021/07/13 03:18:38;;;;;;;53.58;6.45;;;;;;;21.41;70.70;97122.19;4971370;28;20596;-70
2021/07/13 03:21:04;;;;;;;47.05;6.18;;;;;;;21.66;70.27;97116.16;4971997;28;20133;-69
2021/07/13 03:23:35;;;;;;;51.65;6.22;;;;;;;21.81;69.47;97108.47;4969822;28;20048;-69
2021/07/13 03:26:01;;;;;;;64.15;7.15;;;;;;;21.44;69.96;97106.81;4969202;28;20778;-71
2021/07/13 03:28:28;;;;;;;48.88;6.38;;;;;;;21.08;71.56;97095.38;4971141;28;20038;-71
2021/07/13 03:30:54;;;;;;;51.85;6.90;;;;;;;20.62;73.58;97091.91;4969831;28;20063;-70
2021/07/13 03:33:21;;;;;;;60.05;6.90;;;;;;;20.26;76.56;97091.81;4970201;28;20053;-71
2021/07/13 03:35:47;;;;;;;47.63;6.25;;;;;;;20.69;74.97;97079.75;4968366;28;20058;-72
2021/07/13 03:38:15;;;;;;;53.17;6.55;;;;;;;21.66;70.73;97076.34;4968947;28;20042;-70
2021/07/13 03:40:42;;;;;;;57.53;7.18;;;;;;;21.90;69.47;97064.22;4968395;28;20547;-69
2021/07/13 03:43:07;;;;;;;56.83;7.10;;;;;;;21.78;69.80;97052.19;4969677;28;20034;-70
2021/07/13 03:45:33;;;;;;;57.33;6.97;;;;;;;20.72;75.04;97052.97;4969624;28;20039;-71
2021/07/13 03:48:00;;;;;;;50.58;6.82;;;;;;;20.38;74.88;97048.25;4967924;28;20031;-71
2021/07/13 03:50:29;;;;;;;53.05;6.57;;;;;;;21.15;72.47;97061.97;4969290;28;20042;-71
2021/07/13 03:52:54;;;;;;;58.65;7.32;;;;;;;20.86;73.26;97038.34;4971439;28;20030;-69
2021/07/13 03:55:20;;;;;;;61.60;7.45;;;;;;;20.59;74.98;97030.28;4968958;28;20034;-71
2021/07/13 03:57:45;;;;;;;66.25;8.05;;;;;;;20.23;76.12;97040.78;4970162;28;20077;-71
2021/07/13 04:00:16;;;;;;;64.32;7.30;;;;;;;19.90;77.50;97031.59;4967085;28;20033;-70
2021/07/13 04:02:42;;;;;;;51.63;7.07;;;;;;;19.88;78.78;97012.38;4967940;28;20104;-70
2021/07/13 04:05:09;;;;;;;49.67;6.85;;;;;;;20.03;78.14;97003.00;4968712;28;20619;-69
2021/07/13 04:07:35;;;;;;;68.20;7.97;;;;;;;19.92;78.84;96984.66;4965810;28;20026;-71
2021/07/13 04:10:02;;;;;;;68.07;7.82;;;;;;;19.56;80.49;96984.50;4968485;28;20121;-72
2021/07/13 04:12:28;;;;;;;59.17;7.97;;;;;;;19.38;82.36;96971.16;4968774;28;20038;-70
2021/07/13 04:14:53;;;;;;;54.17;6.93;;;;;;;19.67;80.83;96978.19;4969159;28;20038;-72
2021/07/13 04:17:18;;;;;;;56.53;7.18;;;;;;;20.04;78.71;96969.44;4967291;28;20031;-72
2021/07/13 04:19:44;;;;;;;54.42;7.05;;;;;;;20.02;79.18;96979.31;4969413;28;21149;-71
2021/07/13 04:22:09;;;;;;;58.22;7.65;;;;;;;20.08;78.56;96975.25;4969436;28;20647;-69
2021/07/13 04:24:34;;;;;;;55.58;6.65;;;;;;;20.82;75.35;96976.88;4967172;28;20489;-72
2021/07/13 04:27:00;;;;;;;55.63;7.30;;;;;;;20.31;78.56;96967.72;4967877;28;20585;-71
2021/07/13 04:29:25;;;;;;;52.58;6.88;;;;;;;20.29;79.17;96967.03;4969227;28;20133;-70
2021/07/13 04:31:51;;;;;;;57.03;7.57;;;;;;;20.03;79.41;96967.75;4969650;28;20381;-70
2021/07/13 04:34:16;;;;;;;49.22;6.78;;;;;;;20.08;79.64;96988.50;4970009;28;20841;-71
2021/07/13 04:36:42;;;;;;;58.78;7.97;;;;;;;19.03;86.71;97001.69;4967789;28;20039;-71
2021/07/13 04:39:09;;;;;;;57.17;7.28;;;;;;;19.40;86.75;97014.16;4967362;28;20057;-70
2021/07/13 04:41:35;;;;;;;75.40;8.93;;;;;;;18.91;90.37;97031.03;4966074;28;20046;-69
2021/07/13 04:44:01;;;;;;;59.30;7.53;;;;;;;18.78;88.46;97042.66;4971035;28;20217;-72
2021/07/13 04:46:27;;;;;;;55.97;7.38;;;;;;;19.14;86.45;97036.91;4967907;28;20612;-71
2021/07/13 04:48:53;;;;;;;51.20;6.70;;;;;;;19.73;82.89;97043.78;4967508;28;20037;-70
2021/07/13 04:51:18;;;;;;;53.70;6.97;;;;;;;20.36;79.63;97047.56;4969503;28;20042;-72
2021/07/13 04:53:44;;;;;;;51.53;6.78;;;;;;;20.28;80.71;97040.34;4969119;28;20039;-70
2021/07/13 04:56:09;;;;;;;57.42;7.13;;;;;;;19.71;84.76;97029.81;4984772;28;20054;-71
2021/07/13 04:58:34;;;;;;;61.03;7.78;;;;;;;19.57;87.26;97044.31;4969717;28;20073;-70
2021/07/13 05:01:00;;;;;;;54.88;7.65;;;;;;;19.27;87.53;97054.13;4975324;28;20814;-69
2021/07/13 05:03:25;;;;;;;48.78;7.45;;;;;;;19.14;89.50;97044.81;4941972;28;20081;-71
2021/07/13 05:05:50;;;;;;;45.78;7.00;;;;;;;19.31;88.76;97038.81;4956802;28;20109;-70
2021/07/13 05:08:16;;;;;;;44.75;6.72;;;;;;;19.29;90.78;97026.72;4970513;28;20026;-69
2021/07/13 05:10:41;;;;;;;46.83;6.30;;;;;;;20.13;82.76;97034.72;4972344;28;20041;-70
2021/07/13 05:13:11;;;;;;;51.20;6.65;;;;;;;20.44;80.37;97042.38;4970464;28;20039;-69
2021/07/13 05:15:39;;;;;;;42.67;5.78;;;;;;;20.44;80.38;97036.22;4965989;28;20055;-70
2021/07/13 05:18:07;;;;;;;48.88;6.45;;;;;;;20.12;84.45;97033.03;4971680;28;20132;-70
2021/07/13 05:20:32;;;;;;;46.72;6.78;;;;;;;19.59;86.80;97028.31;4970934;28;20060;-70
2021/07/13 05:22:59;;;;;;;48.42;6.65;;;;;;;19.71;87.07;97034.28;4972561;28;20565;-71
2021/07/13 05:25:25;;;;;;;40.28;6.45;;;;;;;19.61;86.36;97029.84;4968830;28;20439;-70
2021/07/13 05:27:51;;;;;;;45.13;6.78;;;;;;;19.66;87.51;97037.34;4970462;28;20055;-70
2021/07/13 05:30:18;;;;;;;56.72;8.93;;;;;;;19.82;86.96;97040.25;4972297;28;20039;-71
2021/07/13 05:32:44;;;;;;;59.90;11.82;;;;;;;20.62;85.24;97042.41;4973753;28;20117;-70
2021/07/13 05:35:09;;;;;;;50.03;8.60;;;;;;;20.89;82.36;97040.69;4971045;28;20033;-70
2021/07/13 05:37:36;;;;;;;52.67;7.68;;;;;;;20.19;85.57;97039.41;4972582;28;20030;-72
2021/07/13 05:40:08;;;;;;;35.58;6.18;;;;;;;20.41;84.26;97029.41;4971480;28;20034;-71
2021/07/13 05:42:33;;;;;;;51.55;6.95;;;;;;;20.46;85.14;97031.59;4972697;28;20050;-72
2021/07/13 05:45:00;;;;;;;50.10;6.63;;;;;;;20.85;84.31;97034.88;4971753;28;20077;-72
2021/07/13 05:47:25;;;;;;;36.63;6.47;;;;;;;20.84;84.93;97033.19;4970906;28;20057;-71
2021/07/13 05:49:51;;;;;;;45.65;7.07;;;;;;;21.15;88.51;97030.16;4971138;28;20109;-72
2021/07/13 05:52:16;;;;;;;40.47;6.45;;;;;;;20.88;86.08;97034.56;4972096;28;20129;-71
2021/07/13 05:54:42;;;;;;;43.08;6.90;;;;;;;21.13;85.32;97037.44;4973889;28;20022;-70
2021/07/13 05:57:07;;;;;;;47.25;6.72;;;;;;;20.81;85.21;97033.50;4972309;28;20622;-71
2021/07/13 05:59:32;;;;;;;44.63;6.40;;;;;;;21.27;83.18;97034.25;4985425;28;20023;-70
2021/07/13 06:01:58;;;;;;;44.88;6.53;;;;;;;20.85;83.31;97023.44;4970057;28;20068;-71
2021/07/13 06:04:23;;;;;;;42.97;6.22;;;;;;;20.84;83.72;97035.84;4971669;28;20027;-71
2021/07/13 06:06:48;;;;;;;32.83;5.60;;;;;;;20.84;84.79;97027.88;4969640;28;20039;-71
2021/07/13 06:09:14;;;;;;;40.38;6.90;;;;;;;20.73;85.46;97026.31;4970261;28;20034;-71
2021/07/13 06:11:39;;;;;;;48.78;6.65;;;;;;;20.78;83.11;97025.84;4971580;28;20031;-71
2021/07/13 06:14:04;;;;;;;47.20;6.68;;;;;;;21.20;81.34;97014.63;4970470;28;20026;-72
2021/07/13 06:16:30;;;;;;;36.55;5.63;;;;;;;21.37;81.19;97020.88;4971074;28;20070;-70
2021/07/13 06:18:58;;;;;;;46.20;6.40;;;;;;;21.58;79.24;97012.63;4971828;28;20026;-71
2021/07/13 06:21:23;;;;;;;36.47;6.00;;;;;;;21.74;78.84;97017.16;4973260;28;20045;-71
2021/07/13 06:23:48;;;;;;;40.08;6.30;;;;;;;21.52;78.26;97015.88;4971499;28;20030;-70
2021/07/13 06:26:14;;;;;;;50.20;6.35;;;;;;;21.38;78.84;97014.59;4971467;28;20038;-72
2021/07/13 06:28:39;;;;;;;39.78;6.30;;;;;;;21.18;79.77;97008.66;4970863;28;20034;-71
2021/07/13 06:31:04;;;;;;;53.50;7.10;;;;;;;21.66;78.44;97002.03;4972794;28;20038;-70
2021/07/13 06:33:30;;;;;;;46.22;6.35;;;;;;;21.87;77.50;96993.72;4974245;28;20112;-69
2021/07/13 06:35:55;;;;;;;41.75;6.18;;;;;;;21.60;79.69;96991.25;4972293;28;20035;-70
2021/07/13 06:38:20;;;;;;;35.00;5.70;;;;;;;21.70;78.47;96998.06;4972665;28;20069;-72
2021/07/13 06:40:46;;;;;;;45.70;6.40;;;;;;;21.44;79.30;97013.16;4972841;28;20046;-71
2021/07/13 06:43:11;;;;;;;45.63;6.50;;;;;;;21.64;78.56;97004.03;4972793;28;20026;-70
2021/07/13 06:45:37;;;;;;;38.97;6.07;;;;;;;21.87;77.27;97000.81;4972495;28;20038;-71
2021/07/13 06:48:02;;;;;;;48.35;6.53;;;;;;;21.97;76.39;96998.88;4974395;28;20041;-71
2021/07/13 06:50:28;;;;;;;48.33;6.47;;;;;;;21.83;78.44;96996.81;4972712;28;20065;-71
2021/07/13 06:52:54;;;;;;;49.63;6.50;;;;;;;21.85;77.69;96992.19;4974643;28;20031;-70
2021/07/13 06:55:20;;;;;;;51.50;6.50;;;;;;;21.88;76.99;97000.66;4972124;28;20038;-70
2021/07/13 06:57:46;;;;;;;49.67;6.55;;;;;;;21.69;79.64;97001.75;4974465;28;20469;-70
2021/07/13 07:00:12;;;;;;;42.78;6.50;;;;;;;21.92;76.97;96999.34;4972364;28;20635;-70
2021/07/13 07:02:38;;;;;;;52.97;6.90;;;;;;;22.35;74.51;96995.91;4972181;28;20042;-71
2021/07/13 07:05:05;;;;;;;47.13;6.72;;;;;;;22.37;75.23;96999.22;4971983;28;20034;-71
2021/07/13 07:07:30;;;;;;;41.90;6.13;;;;;;;22.36;74.03;97003.72;4973445;28;20087;-70
2021/07/13 07:09:56;;;;;;;44.28;6.15;;;;;;;22.75;72.32;97000.47;4971066;28;20027;-70
2021/07/13 07:12:21;;;;;;;46.28;6.28;;;;;;;22.36;74.91;96998.41;4973744;28;20035;-70
2021/07/13 07:14:46;;;;;;;37.13;5.65;;;;;;;22.81;72.52;96989.19;4970615;28;20034;-71
2021/07/13 07:17:12;;;;;;;42.78;6.00;;;;;;;22.61;73.51;96990.50;4973863;28;20103;-71
2021/07/13 07:19:37;;;;;;;43.13;6.13;;;;;;;22.70;73.50;96976.22;4988567;28;20030;-72
2021/07/13 07:22:03;;;;;;;44.75;6.68;;;;;;;22.82;72.22;96974.06;4972366;28;20042;-71
2021/07/13 07:24:28;;;;;;;40.45;6.15;;;;;;;22.44;76.61;96974.53;4972030;28;20023;-70
2021/07/13 07:26:54;;;;;;;39.13;6.03;;;;;;;22.73;72.39;96973.22;4970628;28;20208;-70
2021/07/13 07:29:19;;;;;;;36.75;5.80;;;;;;;22.81;72.49;96964.41;4969449;28;20033;-71
2021/07/13 07:31:44;;;;;;;45.22;6.47;;;;;;;23.03;70.89;96962.94;4971694;28;20569;-70
2021/07/13 07:34:10;;;;;;;49.50;6.45;;;;;;;23.48;69.45;96964.25;4970737;28;20030;-71
2021/07/13 07:36:35;;;;;;;51.05;6.75;;;;;;;23.66;68.62;96964.88;4969537;28;20038;-70
2021/07/13 07:39:01;;;;;;;42.17;5.75;;;;;;;23.76;68.13;96953.19;4971497;28;20064;-70
2021/07/13 07:41:26;;;;;;;46.63;6.25;;;;;;;23.43;69.43;96958.59;4972814;28;20684;-71
2021/07/13 07:43:52;;;;;;;46.03;6.85;;;;;;;23.33;71.13;96952.66;4972686;28;20085;-71
2021/07/13 07:46:17;;;;;;;47.75;6.57;;;;;;;23.61;68.86;96953.91;4972776;28;20130;-71
2021/07/13 07:48:43;;;;;;;47.17;7.10;;;;;;;23.22;70.23;96946.66;4971693;28;20026;-73
2021/07/13 07:51:08;;;;;;;36.20;6.22;;;;;;;23.55;69.86;96943.94;4971322;28;20374;-70
2021/07/13 07:53:34;;;;;;;49.90;7.15;;;;;;;23.32;70.18;96940.34;4972725;28;20027;-70
2021/07/13 07:55:59;;;;;;;42.33;6.93;;;;;;;22.98;71.88;96938.69;4970431;28;20066;-71
2021/07/13 07:58:24;;;;;;;45.20;6.88;;;;;;;23.31;71.42;96933.38;4971369;28;20023;-72
2021/07/13 08:00:50;;;;;;;42.25;6.78;;;;;;;22.91;72.53;96927.88;4972375;28;20117;-72
2021/07/13 08:03:15;;;;;;;40.85;6.30;;;;;;;23.26;70.57;96931.19;4969914;28;20105;-71
2021/07/13 08:05:42;;;;;;;49.75;7.40;;;;;;;23.02;73.32;96930.19;4970759;28;20045;-71
2021/07/13 08:08:08;;;;;;;42.83;6.88;;;;;;;23.41;71.20;96939.31;4969172;28;20034;-72
2021/07/13 08:10:33;;;;;;;43.45;7.75;;;;;;;23.26;71.52;96937.34;4971954;28;20046;-70
2021/07/13 08:13:00;;;;;;;52.53;7.80;;;;;;;23.42;71.55;96941.00;4972083;28;20035;-72
2021/07/13 08:15:26;;;;;;;50.55;7.95;;;;;;;23.53;70.21;96943.28;4971804;28;20125;-70
2021/07/13 08:17:53;;;;;;;42.95;6.43;;;;;;;23.96;67.97;96954.47;4972473;28;20027;-70
2021/07/13 08:20:19;;;;;;;47.63;7.40;;;;;;;23.78;69.37;96949.34;4970401;28;20033;-71
2021/07/13 08:22:48;;;;;;;42.60;6.60;;;;;;;23.96;68.50;96954.47;4968674;28;20031;-71
2021/07/13 08:25:20;;;;;;;42.15;7.05;;;;;;;23.89;69.78;96950.03;4970903;28;20029;-69
2021/07/13 08:27:46;;;;;;;;;;;;;;;23.79;71.83;96948.41;4971223;28;20027;-70
2021/07/13 08:30:12;;;;;;;43.25;6.72;;;;;;;23.97;69.36;96955.34;4970291;28;19921;-70
2021/07/13 08:32:38;;;;;;;38.42;6.43;;;;;;;23.87;69.60;96955.50;4970859;28;20136;-71
2021/07/13 08:35:04;;;;;;;45.90;7.05;;;;;;;24.08;68.99;96956.75;4972412;28;20692;-74
2021/07/13 08:37:32;;;;;;;47.10;7.90;;;;;;;23.88;72.89;96969.69;4970010;28;20039;-71
2021/07/13 08:40:07;;;;;;;46.15;7.90;;;;;;;23.59;74.41;96961.22;4970597;28;20039;-71
2021/07/13 08:42:41;;;;;;;47.05;7.85;;;;;;;23.40;73.72;96970.44;4970765;28;20053;-70
2021/07/13 08:45:13;;;;;;;42.30;7.68;;;;;;;23.72;72.85;96974.00;4971423;28;20366;-71
2021/07/13 08:47:40;;;;;;;57.05;7.88;;;;;;;23.93;69.86;96977.97;4972121;28;20034;-71
2021/07/13 08:50:07;;;;;;;38.15;6.80;;;;;;;23.76;74.02;96972.66;4971823;28;20066;-71
2021/07/13 08:52:33;;;;;;;40.38;6.82;;;;;;;23.89;71.99;96968.66;4970331;28;20057;-71
2021/07/13 08:55:00;;;;;;;45.53;8.07;;;;;;;23.82;74.90;96968.50;4971707;28;20026;-71
2021/07/13 08:57:25;;;;;;;44.15;7.45;;;;;;;23.81;73.94;96970.34;4969254;28;20027;-71
2021/07/13 08:59:51;;;;;;;41.63;6.53;;;;;;;24.15;68.89;96973.72;4970588;28;20077;-70
2021/07/13 09:02:16;;;;;;;43.35;7.40;;;;;;;24.19;69.93;96977.72;4970867;28;20060;-71
2021/07/13 09:04:42;;;;;;;40.03;6.60;;;;;;;24.50;67.25;96987.53;4970752;28;20656;-71
2021/07/13 09:07:09;;;;;;;46.00;7.82;;;;;;;24.21;69.33;96981.84;4970168;28;20031;-71
2021/07/13 09:09:37;;;;;;;41.63;7.20;;;;;;;24.90;65.57;96986.44;4970260;28;20026;-72
2021/07/13 09:12:12;;;;;;;44.33;8.20;;;;;;;24.87;67.81;96988.63;4969566;28;20035;-71
2021/07/13 09:15:00;;;;;;;38.80;7.60;;;;;;;24.01;72.70;96986.75;4969773;28;20034;-73
2021/07/13 09:17:26;;;;;;;38.10;7.60;;;;;;;24.08;70.98;96999.38;4965740;28;20246;-73
2021/07/13 09:20:38;;;;;;;47.83;8.60;;;;;;;24.20;70.11;96993.50;4951660;28;20015;-73
2021/07/13 09:23:06;;;;;;;48.05;8.52;;;;;;;24.41;70.65;96990.25;4950593;28;20516;-73
2021/07/13 09:25:44;;;;;;;51.13;8.85;;;;;;;24.09;70.38;96991.22;4954241;28;20046;-71
2021/07/13 09:28:11;;;;;;;50.97;8.85;;;;;;;24.04;71.57;96989.09;4970130;28;20085;-72
2021/07/13 09:30:43;;;;;;;46.25;8.32;;;;;;;23.98;70.42;96989.75;4970281;28;20594;-71
2021/07/13 09:33:12;;;;;;;42.40;7.63;;;;;;;23.99;73.34;96986.09;4968959;28;20564;-71
2021/07/13 09:35:37;;;;;;;48.45;7.82;;;;;;;24.31;71.91;96994.94;4970858;28;20154;-70
2021/07/13 09:38:03;;;;;;;43.22;8.23;;;;;;;24.39;71.35;96986.94;4970729;28;20482;-72
2021/07/13 09:40:36;;;;;;;33.50;6.63;;;;;;;24.65;70.50;96984.97;4970427;28;20023;-71
2021/07/13 09:43:01;;;;;;;38.47;7.65;;;;;;;24.58;71.45;96990.19;4971093;28;20034;-71
2021/07/13 09:45:31;;;;;;;41.28;7.65;;;;;;;24.71;68.49;96992.28;4969159;28;20112;-71
2021/07/13 09:48:08;;;;;;;42.78;7.70;;;;;;;24.88;71.68;96984.97;4969481;28;20026;-72
2021/07/13 09:50:40;;;;;;;50.83;8.45;;;;;;;24.62;70.71;96986.16;4970496;28;20038;-71
2021/07/13 09:53:10;;;;;;;50.38;8.35;;;;;;;24.62;69.70;96983.47;4972533;28;20075;-72
2021/07/13 09:55:35;;;;;;;43.80;8.05;;;;;;;25.05;67.89;96991.84;4969694;28;20034;-72
2021/07/13 09:58:27;;;;;;;40.28;7.13;;;;;;;24.64;69.66;97005.47;4970853;28;20027;-72
2021/07/13 10:00:57;;;;;;;47.05;7.82;;;;;;;24.97;69.47;97005.25;4968090;28;20047;-71
2021/07/13 10:03:23;;;;;;;42.40;7.80;;;;;;;24.42;68.09;97001.72;4971353;28;20174;-72
2021/07/13 10:05:51;;;;;;;40.13;7.15;;;;;;;24.94;69.78;97000.25;4975288;28;20060;-72
2021/07/13 10:08:18;;;;;;;46.20;7.55;;;;;;;24.81;70.30;97009.69;4972535;28;20126;-71
2021/07/13 10:10:45;;;;;;;41.83;7.15;;;;;;;24.43;70.93;97003.41;4972626;28;20031;-73
2021/07/13 10:13:11;;;;;;;47.05;7.70;;;;;;;24.69;68.78;97003.09;4973828;28;20471;-72
2021/07/13 10:15:38;;;;;;;43.50;7.70;;;;;;;24.59;66.92;96994.50;4972184;28;20672;-70
2021/07/13 10:18:04;;;;;;;55.45;7.80;;;;;;;24.94;66.54;96990.44;4972761;28;20409;-72
2021/07/13 10:20:31;;;;;;;47.53;7.88;;;;;;;25.20;69.15;96990.06;4973026;28;20618;-70
2021/07/13 10:23:00;;;;;;;46.25;7.47;;;;;;;24.84;68.38;96986.34;4974317;28;20026;-72
2021/07/13 10:25:36;;;;;;;43.22;7.32;;;;;;;25.07;68.38;96975.66;4974316;28;20118;-72
2021/07/13 10:28:02;;;;;;;45.75;7.47;;;;;;;25.34;67.21;96963.59;4974982;28;20027;-73
2021/07/13 10:30:28;;;;;;;40.47;7.25;;;;;;;25.40;66.71;96968.22;4972456;28;20893;-73
2021/07/13 10:32:53;;;;;;;44.60;7.57;;;;;;;24.87;65.61;96961.97;4973803;28;20061;-71
2021/07/13 10:35:28;;;;;;;31.60;6.65;;;;;;;25.48;66.09;96965.47;4972594;28;20042;-72
2021/07/13 10:38:12;;;;;;;44.83;7.18;;;;;;;25.86;64.89;96951.19;4973881;28;20021;-71
2021/07/13 10:40:39;;;;;;;46.35;7.53;;;;;;;25.45;65.64;96939.13;4973542;28;20177;-73
2021/07/13 10:43:24;;;;;;;45.40;7.38;;;;;;;25.63;65.90;96937.97;4973659;28;20026;-73
2021/07/13 10:46:07;;;;;;;36.00;6.63;;;;;;;25.68;63.05;96944.41;4972053;28;20030;-72
2021/07/13 10:48:33;;;;;;;46.55;7.80;;;;;;;25.70;61.27;96957.56;4974231;28;20039;-72
2021/07/13 10:51:04;;;;;;;41.90;7.50;;;;;;;25.87;61.43;96943.00;4973716;28;20034;-73
2021/07/13 10:53:39;;;;;;;35.25;6.90;;;;;;;25.46;60.80;96951.47;4973758;28;20030;-72
2021/07/13 10:56:28;;;;;;;47.10;7.22;;;;;;;26.11;61.14;96954.44;4972753;28;20038;-73
2021/07/13 10:58:54;;;;;;;42.85;7.28;;;;;;;25.75;63.67;96955.16;4972520;28;20084;-73
2021/07/13 11:01:28;;;;;;;43.38;7.60;;;;;;;25.83;61.33;96957.75;4972460;28;20177;-71
2021/07/13 11:03:58;;;;;;;43.25;7.35;;;;;;;25.57;61.36;96955.53;4972519;28;20463;-71
2021/07/13 11:06:41;;;;;;;35.60;7.13;;;;;;;25.62;63.05;96944.31;4972147;28;20063;-72
2021/07/13 11:09:28;;;;;;;53.08;8.07;;;;;;;25.74;63.46;96953.53;4971831;28;20060;-73
2021/07/13 11:12:06;;;;;;;54.08;8.45;;;;;;;25.78;59.10;96954.81;4973900;28;20568;-72
2021/07/13 11:14:31;;;;;;;45.13;8.07;;;;;;;25.77;58.94;96955.84;4972010;28;20035;-72
2021/07/13 11:16:57;;;;;;;45.60;8.13;;;;;;;25.84;58.83;96959.41;4971448;28;20037;-73
2021/07/13 11:19:22;;;;;;;51.35;8.10;;;;;;;25.62;63.96;96963.00;4987834;28;20926;-70
2021/07/13 11:21:50;;;;;;;43.83;7.43;;;;;;;25.57;65.77;96969.72;4972498;28;20512;-70
2021/07/13 11:24:19;;;;;;;42.30;7.53;;;;;;;25.39;65.49;96961.22;4972365;28;20027;-71
2021/07/13 11:26:47;;;;;;;40.28;7.68;;;;;;;25.20;66.52;96963.38;4973737;28;20612;-70